Jamison, Iowa
Current Conditions -  °F | °C
As of 6:15 AM on Monday 20 Oct 2014 (Local Time) from KI75 Reporting Station
Clear Clear  
Wind Chill: 47°   Ceiling: Unl
Heat Index: 50°   Visibility: 10mi
Dew Point: 45°   Wind: 6mph
Humidity: 83%   Direction: 320°NW
Pressure: 29.98"   Gusts: NA
Location:  41.1554°N, 93.6829°W
Report Text: KI75 201115Z AUTO 32005KT 10SM CLR 10/07 A2998 RMK AO2 T00980070
Loading
Personal Weather Stations






























Interactive Weather Map
Tropical Storm Tracking
New forecast layout! Learn more

10-Day Weather Forecast

Advertisements
Track Severe Weather on mobile